createdAt,value
2018-11-02T00:00:37.151Z,69.74
2018-11-02T00:03:06.038Z,69.68
2018-11-02T00:05:34.140Z,69.49
2018-11-02T00:08:02.243Z,69.47
2018-11-02T00:10:30.343Z,69.62
2018-11-02T00:12:58.934Z,69.77
2018-11-02T00:15:27.223Z,69.91
2018-11-02T00:17:55.330Z,69.93
2018-11-02T00:20:23.434Z,69.91
2018-11-02T00:22:51.526Z,69.82
2018-11-02T00:25:19.630Z,69.69
2018-11-02T00:27:47.741Z,69.57
2018-11-02T00:30:15.836Z,69.49
2018-11-02T00:32:43.938Z,69.51
2018-11-02T00:35:12.036Z,69.46
2018-11-02T00:37:40.138Z,69.45
2018-11-02T00:40:09.067Z,69.49
2018-11-02T00:42:38.278Z,69.56
2018-11-02T00:45:07.783Z,69.61
2018-11-02T00:47:35.871Z,69.60
2018-11-02T00:50:03.991Z,69.51
2018-11-02T00:52:32.089Z,69.49
2018-11-02T00:55:00.177Z,69.37
2018-11-02T00:57:28.270Z,69.27
2018-11-02T00:59:56.355Z,69.29
2018-11-02T01:02:24.448Z,69.31
2018-11-02T01:04:52.578Z,69.19
2018-11-02T01:07:20.680Z,69.06
2018-11-02T01:09:48.772Z,69.01
2018-11-02T01:12:16.863Z,68.96
2018-11-02T01:14:45.153Z,68.88
2018-11-02T01:17:13.246Z,68.83
2018-11-02T01:19:41.326Z,69.01
2018-11-02T01:22:09.454Z,69.13
2018-11-02T01:24:37.530Z,69.27
2018-11-02T01:27:05.661Z,69.30
2018-11-02T01:29:33.748Z,69.19
2018-11-02T01:32:01.843Z,69.06
2018-11-02T01:34:29.936Z,68.91
2018-11-02T01:36:58.040Z,69.05
2018-11-02T01:39:26.144Z,69.17
2018-11-02T01:41:54.260Z,69.24
2018-11-02T01:44:22.404Z,69.23
2018-11-02T01:46:50.508Z,69.24
2018-11-02T01:49:18.612Z,69.21
2018-11-02T01:51:46.703Z,69.16
2018-11-02T01:54:14.807Z,69.20
2018-11-02T01:56:42.906Z,69.24
2018-11-02T01:59:11.014Z,69.46
2018-11-02T02:01:39.111Z,69.64
2018-11-02T02:04:07.326Z,69.72
2018-11-02T02:06:35.416Z,70.11
2018-11-02T02:09:03.823Z,70.30
2018-11-02T02:11:31.934Z,70.55
2018-11-02T02:14:00.037Z,70.83
2018-11-02T02:16:28.133Z,70.83
2018-11-02T02:18:56.423Z,70.82
2018-11-02T02:21:24.522Z,70.63
2018-11-02T02:23:52.626Z,70.37
2018-11-02T02:26:20.761Z,70.19
2018-11-02T02:28:48.871Z,69.97
2018-11-02T02:31:16.970Z,69.82
2018-11-02T02:33:45.091Z,69.75
2018-11-02T02:36:13.179Z,69.67
2018-11-02T02:38:41.279Z,69.42
2018-11-02T02:41:09.386Z,69.35
2018-11-02T02:43:37.489Z,69.22
2018-11-02T02:46:06.196Z,69.15
2018-11-02T02:48:34.291Z,69.10
2018-11-02T02:51:02.404Z,69.15
2018-11-02T02:53:30.503Z,69.23
2018-11-02T02:55:58.606Z,69.32
2018-11-02T02:58:26.723Z,69.30
2018-11-02T03:00:54.817Z,69.19
2018-11-02T03:03:22.920Z,69.06
2018-11-02T03:05:51.025Z,68.92
2018-11-02T03:08:19.177Z,68.82
2018-11-02T03:10:47.463Z,68.58
2018-11-02T03:13:15.499Z,68.55
2018-11-02T03:15:43.602Z,68.51
2018-11-02T03:18:11.701Z,68.40
2018-11-02T03:20:39.803Z,68.35
2018-11-02T03:23:07.907Z,68.50
2018-11-02T03:25:36.032Z,68.79
2018-11-02T03:28:04.114Z,68.89
2018-11-02T03:30:32.215Z,69.08
2018-11-02T03:33:00.347Z,69.16
2018-11-02T03:35:28.457Z,69.32
2018-11-02T03:37:56.554Z,69.46
2018-11-02T03:40:24.667Z,69.54
2018-11-02T03:42:52.759Z,69.75
2018-11-02T03:45:20.859Z,69.84
2018-11-02T03:47:48.953Z,69.84
2018-11-02T03:50:17.498Z,69.92
2018-11-02T03:52:45.591Z,69.74
2018-11-02T03:55:13.683Z,69.64
2018-11-02T03:57:41.783Z,69.43
2018-11-02T04:00:10.348Z,69.31
2018-11-02T04:02:38.799Z,69.19
2018-11-02T04:05:07.477Z,69.12
2018-11-02T04:07:35.586Z,68.98
2018-11-02T04:10:03.712Z,68.93
2018-11-02T04:12:31.812Z,69.02
2018-11-02T04:14:59.907Z,69.07
2018-11-02T04:17:27.996Z,69.09
2018-11-02T04:19:56.088Z,69.09
2018-11-02T04:22:24.174Z,69.09
2018-11-02T04:24:52.265Z,68.94
2018-11-02T04:27:20.369Z,68.91
2018-11-02T04:29:48.487Z,68.97
2018-11-02T04:32:16.561Z,68.94
2018-11-02T04:34:44.645Z,68.95
2018-11-02T04:37:12.746Z,69.06
2018-11-02T04:39:40.824Z,69.31
2018-11-02T04:42:08.922Z,69.39
2018-11-02T04:44:37.108Z,69.47
2018-11-02T04:47:05.859Z,69.56
2018-11-02T04:49:33.951Z,69.42
2018-11-02T04:52:02.030Z,69.53
2018-11-02T04:54:30.124Z,69.46
2018-11-02T04:56:58.212Z,69.37
2018-11-02T04:59:26.305Z,69.48
2018-11-02T05:01:54.390Z,69.52
2018-11-02T05:04:22.496Z,69.54
2018-11-02T05:06:50.578Z,69.77
2018-11-02T05:09:18.669Z,70.11
2018-11-02T05:11:46.757Z,70.21
2018-11-02T05:14:14.853Z,70.56
2018-11-02T05:16:42.949Z,70.57
2018-11-02T05:19:11.254Z,70.74
2018-11-02T05:21:39.331Z,70.73
2018-11-02T05:24:07.423Z,70.80
2018-11-02T05:26:35.519Z,70.68
2018-11-02T05:29:03.616Z,70.42
2018-11-02T05:31:31.696Z,70.19
2018-11-02T05:33:59.830Z,69.95
2018-11-02T05:36:27.918Z,69.57
2018-11-02T05:38:56.011Z,69.37
2018-11-02T05:41:24.248Z,69.32
2018-11-02T05:43:52.407Z,69.21
2018-11-02T05:46:20.497Z,69.20
2018-11-02T05:48:48.596Z,69.16
2018-11-02T05:51:16.689Z,69.11
2018-11-02T05:53:44.779Z,69.12
2018-11-02T05:56:12.860Z,69.12
2018-11-02T05:58:41.031Z,69.20
2018-11-02T06:01:09.110Z,69.24
2018-11-02T06:03:37.199Z,69.20
2018-11-02T06:06:05.386Z,69.30
2018-11-02T06:08:33.433Z,69.32
2018-11-02T06:11:01.529Z,69.18
2018-11-02T06:13:29.720Z,69.00
2018-11-02T06:15:57.717Z,69.21
2018-11-02T06:18:25.807Z,69.69
2018-11-02T06:20:53.903Z,69.84
2018-11-02T06:23:21.993Z,69.78
2018-11-02T06:25:50.074Z,69.61
2018-11-02T06:28:18.166Z,69.64
2018-11-02T06:30:46.466Z,69.75
2018-11-02T06:33:14.496Z,70.12
2018-11-02T06:35:42.583Z,70.38
2018-11-02T06:38:10.680Z,70.75
2018-11-02T06:40:38.777Z,70.95
2018-11-02T06:43:07.652Z,71.08
2018-11-02T06:45:35.753Z,71.28
2018-11-02T06:48:03.853Z,71.55
2018-11-02T06:50:31.954Z,71.67
2018-11-02T06:53:00.050Z,71.60
2018-11-02T06:55:28.150Z,71.50
2018-11-02T06:57:56.254Z,71.31
2018-11-02T07:00:24.442Z,71.28
2018-11-02T07:02:52.448Z,71.30
2018-11-02T07:05:20.549Z,71.19
2018-11-02T07:07:49.807Z,71.21
2018-11-02T07:10:17.807Z,71.11
2018-11-02T07:12:45.916Z,71.02
2018-11-02T07:15:14.006Z,70.93
2018-11-02T07:17:42.124Z,71.00
2018-11-02T07:20:10.221Z,71.02
2018-11-02T07:22:38.325Z,71.09
2018-11-02T07:25:07.015Z,71.12
2018-11-02T07:27:35.075Z,70.81
2018-11-02T07:30:03.182Z,70.55
2018-11-02T07:32:31.443Z,70.47
2018-11-02T07:34:59.530Z,70.43
2018-11-02T07:37:27.630Z,70.36
2018-11-02T07:39:55.738Z,70.15
2018-11-02T07:42:23.836Z,70.00
2018-11-02T07:44:52.033Z,69.85
2018-11-02T07:47:20.217Z,69.88
2018-11-02T07:49:48.260Z,69.38
2018-11-02T07:52:16.445Z,68.89
2018-11-02T07:54:44.539Z,69.02
2018-11-02T07:57:12.652Z,69.04
2018-11-02T07:59:40.844Z,68.96
2018-11-02T08:02:08.866Z,68.92
2018-11-02T08:04:36.962Z,68.81
2018-11-02T08:07:05.080Z,68.64
2018-11-02T08:09:33.184Z,68.51
2018-11-02T08:12:01.382Z,68.27
2018-11-02T08:14:29.395Z,68.12
2018-11-02T08:16:57.493Z,68.10
2018-11-02T08:19:25.590Z,68.15
2018-11-02T08:21:53.683Z,67.91
2018-11-02T08:24:21.859Z,68.12
2018-11-02T08:26:49.927Z,68.40
2018-11-02T08:29:18.034Z,68.65
2018-11-02T08:31:46.167Z,68.80
2018-11-02T08:34:14.411Z,68.90
2018-11-02T08:36:43.198Z,69.01
2018-11-02T08:39:12.231Z,68.88
2018-11-02T08:41:40.330Z,68.89
2018-11-02T08:44:09.343Z,68.77
2018-11-02T08:46:37.425Z,68.60
2018-11-02T08:49:05.570Z,68.66
2018-11-02T08:51:33.658Z,68.41
2018-11-02T08:54:01.745Z,68.49
2018-11-02T08:56:29.963Z,68.61
2018-11-02T08:58:58.047Z,68.57
2018-11-02T09:01:26.106Z,68.34
2018-11-02T09:03:54.199Z,68.15
2018-11-02T09:06:22.284Z,68.01
2018-11-02T09:08:50.430Z,67.94
2018-11-02T09:11:18.561Z,67.88
2018-11-02T09:13:46.637Z,67.83
2018-11-02T09:16:14.726Z,67.85
2018-11-02T09:18:43.371Z,67.92
2018-11-02T09:21:11.462Z,67.94
2018-11-02T09:23:39.546Z,67.95
2018-11-02T09:26:07.871Z,67.90
2018-11-02T09:28:35.947Z,67.81
2018-11-02T09:31:04.125Z,67.66
2018-11-02T09:33:32.231Z,67.67
2018-11-02T09:36:00.332Z,67.74
2018-11-02T09:38:28.414Z,67.95
2018-11-02T09:40:56.510Z,68.17
2018-11-02T09:43:24.642Z,68.33
2018-11-02T09:45:52.804Z,68.52
2018-11-02T09:48:20.862Z,68.74
2018-11-02T09:50:48.969Z,68.94
2018-11-02T09:53:17.049Z,69.08
2018-11-02T09:55:45.222Z,69.33
2018-11-02T09:58:13.259Z,69.37
2018-11-02T10:00:41.345Z,69.54
2018-11-02T10:03:09.430Z,69.70
2018-11-02T10:05:37.532Z,69.66
2018-11-02T10:08:05.630Z,69.79
2018-11-02T10:10:33.732Z,69.93
2018-11-02T10:13:01.824Z,70.30
2018-11-02T10:15:30.063Z,70.38
2018-11-02T10:17:58.019Z,70.29
2018-11-02T10:20:26.126Z,70.24
2018-11-02T10:22:54.206Z,70.23
2018-11-02T10:25:22.289Z,70.22
2018-11-02T10:27:50.383Z,70.34
2018-11-02T10:30:18.468Z,70.33
2018-11-02T10:32:49.244Z,70.39
2018-11-02T10:35:17.314Z,70.36
2018-11-02T10:37:45.527Z,70.34
2018-11-02T10:40:15.459Z,70.35
2018-11-02T10:42:44.773Z,70.47
2018-11-02T10:45:12.880Z,70.45
2018-11-02T10:47:40.994Z,70.29
2018-11-02T10:50:09.096Z,70.13
2018-11-02T10:52:37.214Z,70.01
2018-11-02T10:55:05.345Z,69.86
2018-11-02T10:57:33.461Z,69.80
2018-11-02T11:00:01.561Z,69.64
2018-11-02T11:02:35.242Z,69.53
2018-11-02T11:05:03.413Z,69.27
2018-11-02T11:07:31.523Z,69.31
2018-11-02T11:09:59.884Z,69.32
2018-11-02T11:12:28.172Z,69.33
2018-11-02T11:14:56.147Z,69.28
2018-11-02T11:17:24.239Z,69.31
2018-11-02T11:19:52.349Z,69.05
2018-11-02T11:22:20.454Z,68.85
2018-11-02T11:24:48.571Z,68.51
2018-11-02T11:27:16.667Z,68.15
2018-11-02T11:29:44.816Z,68.06
2018-11-02T11:32:12.870Z,67.81
2018-11-02T11:34:41.002Z,67.56
2018-11-02T11:37:09.134Z,67.04
2018-11-02T11:39:37.273Z,66.94
2018-11-02T11:42:05.866Z,66.28
2018-11-02T11:44:33.866Z,65.64
2018-11-02T11:47:01.945Z,65.22
2018-11-02T11:49:30.105Z,64.75
2018-11-02T11:51:58.189Z,64.35
2018-11-02T11:54:26.614Z,63.95
2018-11-02T11:56:54.617Z,63.44
2018-11-02T11:59:22.715Z,63.11
2018-11-02T12:01:50.805Z,63.02
2018-11-02T12:04:19.119Z,62.93
2018-11-02T12:06:47.146Z,62.84
2018-11-02T12:09:15.272Z,62.94
2018-11-02T12:11:43.338Z,62.83
2018-11-02T12:14:11.490Z,62.83
2018-11-02T12:16:39.640Z,62.69
2018-11-02T12:19:07.739Z,62.56
2018-11-02T12:21:35.852Z,62.48
2018-11-02T12:24:04.016Z,62.70
2018-11-02T12:26:32.127Z,62.96
2018-11-02T12:29:00.215Z,63.24
2018-11-02T12:31:28.316Z,63.39
2018-11-02T12:33:56.394Z,63.41
2018-11-02T12:36:24.498Z,63.41
2018-11-02T12:38:52.584Z,63.24
2018-11-02T12:41:20.679Z,62.98
2018-11-02T12:43:49.003Z,62.32
2018-11-02T12:46:18.246Z,61.56
2018-11-02T12:48:46.544Z,59.75
2018-11-02T12:51:14.528Z,60.06
2018-11-02T12:53:42.649Z,60.40
2018-11-02T12:56:10.898Z,60.28
2018-11-02T12:58:39.031Z,59.82
2018-11-02T13:01:07.120Z,59.22
2018-11-02T13:03:35.216Z,59.14
2018-11-02T13:06:03.319Z,59.02
2018-11-02T13:08:31.457Z,58.69
2018-11-02T13:10:59.557Z,58.48
2018-11-02T13:13:27.714Z,58.22
2018-11-02T13:15:55.899Z,58.07
2018-11-02T13:18:24.003Z,58.02
2018-11-02T13:20:52.123Z,57.92
2018-11-02T13:23:20.255Z,57.71
2018-11-02T13:25:48.444Z,57.57
2018-11-02T13:28:16.525Z,57.72
2018-11-02T13:30:44.690Z,57.23
2018-11-02T13:33:12.713Z,55.76
2018-11-02T13:35:40.854Z,55.64
2018-11-02T13:38:09.029Z,55.54
2018-11-02T13:40:37.200Z,55.33
2018-11-02T13:43:05.544Z,55.11
2018-11-02T13:45:33.653Z,54.85
2018-11-02T13:48:01.751Z,55.02
2018-11-02T13:50:30.028Z,54.68
2018-11-02T13:52:58.674Z,54.11
2018-11-02T13:55:26.752Z,53.95
2018-11-02T13:57:54.859Z,54.00
2018-11-02T14:00:23.024Z,53.69
2018-11-02T14:02:51.217Z,53.42
2018-11-02T14:05:19.253Z,53.42
2018-11-02T14:07:47.354Z,53.65
2018-11-02T14:10:15.457Z,53.74
2018-11-02T14:12:43.616Z,53.84
2018-11-02T14:15:14.040Z,54.07
2018-11-02T14:17:42.629Z,54.41
2018-11-02T14:20:11.841Z,54.84
2018-11-02T14:22:40.121Z,55.13
2018-11-02T14:25:10.418Z,55.36
2018-11-02T14:27:38.539Z,55.70
2018-11-02T14:30:08.542Z,56.08
2018-11-02T14:32:36.890Z,56.38
2018-11-02T14:35:05.056Z,56.59
2018-11-02T14:37:33.223Z,56.65
2018-11-02T14:40:01.267Z,56.72
2018-11-02T14:42:29.377Z,56.92
2018-11-02T14:44:57.487Z,57.12
2018-11-02T14:47:25.599Z,57.37
2018-11-02T14:49:53.724Z,57.69
2018-11-02T14:52:21.819Z,57.86
2018-11-02T14:54:49.918Z,57.97
2018-11-02T14:57:18.005Z,58.11
2018-11-02T14:59:46.117Z,58.25
2018-11-02T15:02:14.198Z,58.44
2018-11-02T15:04:42.289Z,58.68
2018-11-02T15:07:10.369Z,58.97
2018-11-02T15:09:38.465Z,59.18
2018-11-02T15:12:06.564Z,59.40
2018-11-02T15:14:34.840Z,59.53
2018-11-02T15:17:02.931Z,59.62
2018-11-02T15:19:31.022Z,59.83
2018-11-02T15:21:59.113Z,60.15
2018-11-02T15:24:27.195Z,60.38
2018-11-02T15:26:55.286Z,60.60
2018-11-02T15:29:23.367Z,60.87
2018-11-02T15:31:51.618Z,61.13
2018-11-02T15:34:19.698Z,61.37
2018-11-02T15:36:47.832Z,61.59
2018-11-02T15:39:15.911Z,61.84
2018-11-02T15:41:44.004Z,62.07
2018-11-02T15:44:12.159Z,62.26
2018-11-02T15:46:40.193Z,62.46
2018-11-02T15:49:08.281Z,62.66
2018-11-02T15:51:36.374Z,62.77
2018-11-02T15:54:04.723Z,62.78
2018-11-02T15:56:32.824Z,62.88
2018-11-02T15:59:00.910Z,63.01
2018-11-02T16:01:29.004Z,63.20
2018-11-02T16:03:57.087Z,63.36
2018-11-02T16:06:25.190Z,63.49
2018-11-02T16:08:53.290Z,63.66
2018-11-02T16:11:21.380Z,63.75
2018-11-02T16:13:49.475Z,63.86
2018-11-02T16:16:17.563Z,63.94
2018-11-02T16:18:45.654Z,63.97
2018-11-02T16:21:13.749Z,64.01
2018-11-02T16:23:41.837Z,64.04
2018-11-02T16:26:10.106Z,64.04
2018-11-02T16:28:38.374Z,64.08
2018-11-02T16:31:06.468Z,64.14
2018-11-02T16:33:34.564Z,64.19
2018-11-02T16:36:02.643Z,64.32
2018-11-02T16:38:30.738Z,64.42
2018-11-02T16:40:58.814Z,64.52
2018-11-02T16:43:26.920Z,64.65
2018-11-02T16:45:55.001Z,64.76
2018-11-02T16:48:23.104Z,64.84
2018-11-02T16:50:51.195Z,64.90
2018-11-02T16:53:19.283Z,64.99
2018-11-02T16:55:47.455Z,65.04
2018-11-02T16:58:15.479Z,65.03
2018-11-02T17:00:43.548Z,65.06
2018-11-02T17:03:11.642Z,65.17
2018-11-02T17:05:39.733Z,65.17
2018-11-02T17:08:07.836Z,65.20
2018-11-02T17:10:35.963Z,65.23
2018-11-02T17:13:04.191Z,65.24
2018-11-02T17:15:32.276Z,65.28
2018-11-02T17:18:00.428Z,65.21
2018-11-02T17:20:28.467Z,65.09
2018-11-02T17:22:56.604Z,65.04
2018-11-02T17:25:24.705Z,65.01
2018-11-02T17:27:52.883Z,64.99
2018-11-02T17:30:20.928Z,64.95
2018-11-02T17:32:49.015Z,64.87
2018-11-02T17:35:17.112Z,64.72
2018-11-02T17:37:45.222Z,64.69
2018-11-02T17:40:14.529Z,64.58
2018-11-02T17:42:43.075Z,64.50
2018-11-02T17:45:11.190Z,64.37
2018-11-02T17:47:40.350Z,64.27
2018-11-02T17:50:09.790Z,64.24
2018-11-02T17:52:37.881Z,64.24
2018-11-02T17:55:06.014Z,64.23
2018-11-02T17:57:34.283Z,64.19
2018-11-02T18:00:02.382Z,64.03
2018-11-02T18:02:30.474Z,63.84
2018-11-02T18:04:58.624Z,63.67
2018-11-02T18:07:26.711Z,63.57
2018-11-02T18:09:54.799Z,63.54
2018-11-02T18:12:22.974Z,63.45
2018-11-02T18:14:50.985Z,63.34
2018-11-02T18:17:19.087Z,63.20
2018-11-02T18:19:47.201Z,63.05
2018-11-02T18:22:15.350Z,62.93
2018-11-02T18:24:43.383Z,63.06
2018-11-02T18:27:11.534Z,63.10
2018-11-02T18:29:39.617Z,63.26
2018-11-02T18:32:07.721Z,63.47
2018-11-02T18:34:35.827Z,63.62
2018-11-02T18:37:04.785Z,63.69
2018-11-02T18:39:32.935Z,63.75
2018-11-02T18:42:00.997Z,63.84
2018-11-02T18:44:29.130Z,63.95
2018-11-02T18:46:57.179Z,63.92
2018-11-02T18:49:25.298Z,63.89
2018-11-02T18:51:53.498Z,63.89
2018-11-02T18:54:22.591Z,63.88
2018-11-02T18:56:50.955Z,63.81
2018-11-02T18:59:19.286Z,63.57
2018-11-02T19:01:47.782Z,63.80
2018-11-02T19:04:15.862Z,63.83
2018-11-02T19:06:43.944Z,63.65
2018-11-02T19:09:12.042Z,63.61
2018-11-02T19:11:40.336Z,63.42
2018-11-02T19:14:08.591Z,63.43
2018-11-02T19:16:36.780Z,63.66
2018-11-02T19:19:05.351Z,63.68
2018-11-02T19:21:33.588Z,63.71
2018-11-02T19:24:01.606Z,63.70
2018-11-02T19:26:29.733Z,63.61
2018-11-02T19:28:57.874Z,63.60
2018-11-02T19:31:25.992Z,63.57
2018-11-02T19:33:54.084Z,63.51
2018-11-02T19:36:22.165Z,63.47
2018-11-02T19:38:50.286Z,63.42
2018-11-02T19:41:18.350Z,63.53
2018-11-02T19:43:46.478Z,63.62
2018-11-02T19:46:14.532Z,63.66
2018-11-02T19:48:42.629Z,63.72
2018-11-02T19:51:10.845Z,63.82
2018-11-02T19:53:39.191Z,63.81
2018-11-02T19:56:07.203Z,63.80
2018-11-02T19:58:35.303Z,63.71
2018-11-02T20:01:03.477Z,63.75
2018-11-02T20:03:31.663Z,63.73
2018-11-02T20:05:59.751Z,63.82
2018-11-02T20:08:28.004Z,63.80
2018-11-02T20:10:56.100Z,63.78
2018-11-02T20:13:24.205Z,63.85
2018-11-02T20:15:52.307Z,63.88
2018-11-02T20:18:20.396Z,63.92
2018-11-02T20:20:48.492Z,63.92
2018-11-02T20:23:16.571Z,63.93
2018-11-02T20:25:44.672Z,63.96
2018-11-02T20:28:12.757Z,63.98
2018-11-02T20:30:40.859Z,63.98
2018-11-02T20:33:08.964Z,64.01
2018-11-02T20:35:37.111Z,64.03
2018-11-02T20:38:05.159Z,64.08
2018-11-02T20:40:33.327Z,64.18
2018-11-02T20:43:01.372Z,64.22
2018-11-02T20:45:29.489Z,64.24
2018-11-02T20:47:57.579Z,64.26
2018-11-02T20:50:25.696Z,64.28
2018-11-02T20:52:53.974Z,64.31
2018-11-02T20:55:22.089Z,64.36
2018-11-02T20:57:50.178Z,64.46
2018-11-02T21:00:21.696Z,64.52
2018-11-02T21:02:49.866Z,64.60
2018-11-02T21:05:18.855Z,64.62
2018-11-02T21:07:47.446Z,64.69
2018-11-02T21:10:16.752Z,64.71
2018-11-02T21:12:44.986Z,64.68
2018-11-02T21:15:21.424Z,64.61
2018-11-02T21:17:49.961Z,64.62
2018-11-02T21:20:19.447Z,64.57
2018-11-02T21:22:47.535Z,64.52
2018-11-02T21:25:15.749Z,64.46
2018-11-02T21:27:44.412Z,64.43
2018-11-02T21:30:15.692Z,64.37
2018-11-02T21:32:44.756Z,64.33
2018-11-02T21:35:12.895Z,64.26
2018-11-02T21:37:41.018Z,64.09
2018-11-02T21:40:11.999Z,64.00
2018-11-02T21:42:40.122Z,63.87
2018-11-02T21:45:08.220Z,63.79
2018-11-02T21:47:36.317Z,63.71
2018-11-02T21:50:04.736Z,63.63
2018-11-02T21:52:32.846Z,63.44
2018-11-02T21:55:00.931Z,63.30
2018-11-02T21:57:29.033Z,63.22
2018-11-02T21:59:57.131Z,63.07
2018-11-02T22:02:25.232Z,62.80
2018-11-02T22:04:53.582Z,62.65
2018-11-02T22:07:21.677Z,62.33
2018-11-02T22:09:49.759Z,62.32
2018-11-02T22:12:17.880Z,62.15
2018-11-02T22:14:45.964Z,62.05
2018-11-02T22:17:14.207Z,62.10
2018-11-02T22:19:42.291Z,61.98
2018-11-02T22:22:10.407Z,61.98
2018-11-02T22:24:38.723Z,61.96
2018-11-02T22:27:06.840Z,61.95
2018-11-02T22:29:34.903Z,61.88
2018-11-02T22:32:02.987Z,61.81
2018-11-02T22:34:31.083Z,61.82
2018-11-02T22:36:59.163Z,61.73
2018-11-02T22:39:27.273Z,61.47
2018-11-02T22:41:55.451Z,61.29
2018-11-02T22:44:23.497Z,61.20
2018-11-02T22:46:51.574Z,61.01
2018-11-02T22:49:19.666Z,60.57
2018-11-02T22:51:47.746Z,60.17
2018-11-02T22:54:15.845Z,60.36
2018-11-02T22:56:43.933Z,60.19
2018-11-02T22:59:12.024Z,60.24
2018-11-02T23:01:40.113Z,60.18
2018-11-02T23:04:08.204Z,60.18
2018-11-02T23:06:36.286Z,60.19
2018-11-02T23:09:05.931Z,60.16
2018-11-02T23:11:34.025Z,60.00
2018-11-02T23:14:02.131Z,59.82
2018-11-02T23:16:30.222Z,59.87
2018-11-02T23:18:58.325Z,59.83
2018-11-02T23:21:26.403Z,59.78
2018-11-02T23:23:54.706Z,59.65
2018-11-02T23:26:22.796Z,59.52
2018-11-02T23:28:50.886Z,59.43
2018-11-02T23:31:18.980Z,59.37
2018-11-02T23:33:47.068Z,59.35
2018-11-02T23:36:15.167Z,59.44
2018-11-02T23:38:43.261Z,59.45
2018-11-02T23:41:11.349Z,59.49
2018-11-02T23:43:39.468Z,59.45
2018-11-02T23:46:07.583Z,59.32
2018-11-02T23:48:35.670Z,59.45
2018-11-02T23:51:03.783Z,59.63
2018-11-02T23:53:31.887Z,59.65
2018-11-02T23:56:00.004Z,59.64
2018-11-02T23:58:28.084Z,59.80
